Aeroporto :
LOGIN :

Iscrizione | Disclaimer

   EN    FR    IT 

 










Sommario :    VFR   VFR Marginale   IFR   IFR Intensivo   IFR Molto Intensivo
Visibilità : 
Base nubi : 
>= 8 km
>= 3000ft
5 / 8 km
1000 / 3000 ft
1500m / 5 km
500 / 1000 ft
800 / 1500m
200 / 500 ft
< 800m
< 200 ft
Simboli :   Temporali  Nebbia  Neve Forte  Precipitazioni Forti  Vento > 20 kt
SIGMETs :   Varie  Temporali  Ghiacco  Turbolenza  Onda orograficha  Ceneri Vulcaniche






- Altitudine del aeroporto : 408 ft
- Codice IATA : FKB


EDSB - Karlsruhe Baden Baden

ULTIMO METAR :
  • 172050Z 23008KT 210V270 8000 -SHRA FEW014 BKN033 07/05 Q1022

METARs OBSOLETI :
  • 172020Z 26007KT 8000 -SHRA SCT017 SCT025 BKN033 08/07 Q1022
  • 171950Z 20015KT 9999 BKN047 09/06 Q1021
  • 171920Z 20015KT 9999 BKN049 09/06 Q1021
  • 171850Z 19014KT 9999 BKN041 09/07 Q1021
  • 171820Z 20013KT 9999 SCT046 09/07 Q1021

TAF TAF EDSB
Valido dal 17 a 18 ore il 18 a 18 ore UTC


171700Z 1718/1818 24010KT 9999 BKN030
PROB30
TEMPO 1719/1722 26015G25KT SHRA BKN030CB
BECMG 1816/1818 24005KT



MetMap, La meteo Aeronautica in un colpo d'occhio ! - Copyright ORBIFLY Dicembre 2007 - Disclaimer

ORBIFLY MET'MAP TEAM :

Programmazione e sviluppo : Alexandra Zaïnal
Concezione : Baudouin d'Aumeries
Aiuto per la programmazione : Marc-Olivier Méhu
Supporto tecnico e logistico : Manuel Goepfert
Aiuto per la traduzione : Arnaldo La Scala

Contatto : metmap@orbifly.com




FONTI E CREDITI :

   NOAA